sensor_id;sensor_type;location;lat;lon;timestamp;pressure;altitude;pressure_sealevel;temperature;humidity
23473;BME280;11909;52.516;13.564;2022-07-17T00:01:27;101917.94;;;15.99;53.24
23473;BME280;11909;52.516;13.564;2022-07-17T00:03:54;101919.09;;;15.93;53.11
23473;BME280;11909;52.516;13.564;2022-07-17T00:06:20;101919.13;;;15.82;53.68
23473;BME280;11909;52.516;13.564;2022-07-17T00:08:47;101918.88;;;15.78;53.57
23473;BME280;11909;52.516;13.564;2022-07-17T00:11:13;101921.97;;;15.72;53.61
23473;BME280;11909;52.516;13.564;2022-07-17T00:13:41;101922.25;;;15.70;53.73
23473;BME280;11909;52.516;13.564;2022-07-17T00:16:08;101924.47;;;15.68;54.05
23473;BME280;11909;52.516;13.564;2022-07-17T00:18:34;101924.25;;;15.59;54.47
23473;BME280;11909;52.516;13.564;2022-07-17T00:21:01;101922.56;;;15.63;54.20
23473;BME280;11909;52.516;13.564;2022-07-17T00:23:27;101923.97;;;15.61;54.05
23473;BME280;11909;52.516;13.564;2022-07-17T00:25:54;101928.66;;;15.60;54.17
23473;BME280;11909;52.516;13.564;2022-07-17T00:28:20;101920.38;;;15.60;54.26
23473;BME280;11909;52.516;13.564;2022-07-17T00:30:48;101933.16;;;15.51;54.34
23473;BME280;11909;52.516;13.564;2022-07-17T00:33:15;101927.31;;;15.53;54.45
23473;BME280;11909;52.516;13.564;2022-07-17T00:35:41;101920.97;;;15.52;54.73
23473;BME280;11909;52.516;13.564;2022-07-17T00:38:08;101930.44;;;15.46;54.90
23473;BME280;11909;52.516;13.564;2022-07-17T00:40:35;101925.75;;;15.41;55.31
23473;BME280;11909;52.516;13.564;2022-07-17T00:43:02;101920.78;;;15.38;55.22
23473;BME280;11909;52.516;13.564;2022-07-17T00:45:28;101926.06;;;15.29;55.10
23473;BME280;11909;52.516;13.564;2022-07-17T00:47:58;101921.66;;;15.28;55.28
23473;BME280;11909;52.516;13.564;2022-07-17T00:50:28;101918.59;;;15.30;55.15
23473;BME280;11909;52.516;13.564;2022-07-17T00:52:54;101916.97;;;15.24;55.19
23473;BME280;11909;52.516;13.564;2022-07-17T00:55:22;101915.59;;;15.26;55.16
23473;BME280;11909;52.516;13.564;2022-07-17T00:57:48;101912.53;;;15.28;55.38
23473;BME280;11909;52.516;13.564;2022-07-17T01:00:16;101912.56;;;15.23;55.66
23473;BME280;11909;52.516;13.564;2022-07-17T01:02:45;101913.16;;;15.09;56.42
23473;BME280;11909;52.516;13.564;2022-07-17T01:05:15;101914.00;;;15.10;56.01
23473;BME280;11909;52.516;13.564;2022-07-17T01:07:41;101918.13;;;15.12;55.90
23473;BME280;11909;52.516;13.564;2022-07-17T01:10:08;101911.19;;;15.15;55.79
23473;BME280;11909;52.516;13.564;2022-07-17T01:12:35;101912.84;;;15.16;55.73
23473;BME280;11909;52.516;13.564;2022-07-17T01:15:03;101910.72;;;15.02;56.31
23473;BME280;11909;52.516;13.564;2022-07-17T01:17:30;101911.25;;;15.04;56.45
23473;BME280;11909;52.516;13.564;2022-07-17T01:19:57;101911.28;;;14.99;56.57
23473;BME280;11909;52.516;13.564;2022-07-17T01:22:24;101910.16;;;14.95;57.02
23473;BME280;11909;52.516;13.564;2022-07-17T01:24:51;101908.25;;;14.85;57.10
23473;BME280;11909;52.516;13.564;2022-07-17T01:27:17;101912.69;;;14.86;57.25
23473;BME280;11909;52.516;13.564;2022-07-17T01:29:44;101903.84;;;14.84;57.12
23473;BME280;11909;52.516;13.564;2022-07-17T01:32:10;101906.59;;;14.84;57.10
23473;BME280;11909;52.516;13.564;2022-07-17T01:34:37;101905.28;;;14.76;57.29
23473;BME280;11909;52.516;13.564;2022-07-17T01:37:03;101903.56;;;14.70;57.45
23473;BME280;11909;52.516;13.564;2022-07-17T01:39:31;101904.13;;;14.67;57.71
23473;BME280;11909;52.516;13.564;2022-07-17T01:42:15;101898.91;;;14.60;57.89
23473;BME280;11909;52.516;13.564;2022-07-17T01:44:42;101901.69;;;14.55;57.96
23473;BME280;11909;52.516;13.564;2022-07-17T01:47:08;101901.97;;;14.59;58.19
23473;BME280;11909;52.516;13.564;2022-07-17T01:49:35;101900.59;;;14.51;58.00
23473;BME280;11909;52.516;13.564;2022-07-17T01:52:01;101901.69;;;14.50;58.12
23473;BME280;11909;52.516;13.564;2022-07-17T01:54:28;101894.78;;;14.47;58.35
23473;BME280;11909;52.516;13.564;2022-07-17T01:56:56;101898.38;;;14.38;58.53
23473;BME280;11909;52.516;13.564;2022-07-17T01:59:23;101897.03;;;14.35;58.62
23473;BME280;11909;52.516;13.564;2022-07-17T02:01:49;101897.84;;;14.30;58.69
23473;BME280;11909;52.516;13.564;2022-07-17T02:04:16;101900.63;;;14.25;58.97
23473;BME280;11909;52.516;13.564;2022-07-17T02:06:42;101904.19;;;14.26;58.90
23473;BME280;11909;52.516;13.564;2022-07-17T02:09:09;101895.09;;;14.20;59.31
23473;BME280;11909;52.516;13.564;2022-07-17T02:11:35;101893.47;;;14.19;59.41
23473;BME280;11909;52.516;13.564;2022-07-17T02:14:03;101896.50;;;14.07;59.89
23473;BME280;11909;52.516;13.564;2022-07-17T02:16:30;101897.31;;;14.08;59.91
23473;BME280;11909;52.516;13.564;2022-07-17T02:18:56;101891.78;;;14.02;60.34
23473;BME280;11909;52.516;13.564;2022-07-17T02:21:23;101896.22;;;14.03;60.29
23473;BME280;11909;52.516;13.564;2022-07-17T02:23:49;101904.19;;;14.00;60.33
23473;BME280;11909;52.516;13.564;2022-07-17T02:26:16;101902.25;;;13.90;60.60
23473;BME280;11909;52.516;13.564;2022-07-17T02:28:42;101902.25;;;13.85;60.79
23473;BME280;11909;52.516;13.564;2022-07-17T02:31:10;101902.25;;;13.80;61.00
23473;BME280;11909;52.516;13.564;2022-07-17T02:33:37;101894.25;;;13.62;61.34
23473;BME280;11909;52.516;13.564;2022-07-17T02:36:04;101896.41;;;13.60;61.61
23473;BME280;11909;52.516;13.564;2022-07-17T02:38:31;101901.94;;;13.50;61.79
23473;BME280;11909;52.516;13.564;2022-07-17T02:40:57;101897.50;;;13.44;61.96
23473;BME280;11909;52.516;13.564;2022-07-17T02:43:24;101897.50;;;13.44;61.90
23473;BME280;11909;52.516;13.564;2022-07-17T02:45:50;101895.53;;;13.39;62.00
23473;BME280;11909;52.516;13.564;2022-07-17T02:48:18;101899.69;;;13.42;62.18
23473;BME280;11909;52.516;13.564;2022-07-17T02:50:45;101903.50;;;13.36;62.21
23473;BME280;11909;52.516;13.564;2022-07-17T02:53:11;101909.28;;;13.29;62.17
23473;BME280;11909;52.516;13.564;2022-07-17T02:55:38;101912.31;;;13.32;62.14
23473;BME280;11909;52.516;13.564;2022-07-17T02:58:04;101916.16;;;13.31;62.15
23473;BME280;11909;52.516;13.564;2022-07-17T03:00:31;101921.66;;;13.16;62.34
23473;BME280;11909;52.516;13.564;2022-07-17T03:02:57;101917.22;;;13.15;62.52
23473;BME280;11909;52.516;13.564;2022-07-17T03:05:25;101911.44;;;13.16;62.86
23473;BME280;11909;52.516;13.564;2022-07-17T03:07:52;101923.56;;;13.20;62.56
23473;BME280;11909;52.516;13.564;2022-07-17T03:10:18;101922.47;;;13.22;62.72
23473;BME280;11909;52.516;13.564;2022-07-17T03:12:45;101923.31;;;13.22;62.59
23473;BME280;11909;52.516;13.564;2022-07-17T03:15:12;101923.84;;;13.19;62.79
23473;BME280;11909;52.516;13.564;2022-07-17T03:17:39;101920.56;;;13.22;62.56
23473;BME280;11909;52.516;13.564;2022-07-17T03:20:06;101925.22;;;13.16;62.65
23473;BME280;11909;52.516;13.564;2022-07-17T03:22:34;101931.28;;;13.13;62.96
23473;BME280;11909;52.516;13.564;2022-07-17T03:25:01;101920.78;;;13.10;63.73
23473;BME280;11909;52.516;13.564;2022-07-17T03:27:28;101924.63;;;13.09;63.63
23473;BME280;11909;52.516;13.564;2022-07-17T03:29:54;101931.50;;;13.07;63.81
23473;BME280;11909;52.516;13.564;2022-07-17T03:32:21;101928.50;;;13.08;64.00
23473;BME280;11909;52.516;13.564;2022-07-17T03:34:47;101922.66;;;12.99;64.42
23473;BME280;11909;52.516;13.564;2022-07-17T03:37:14;101923.19;;;12.96;64.58
23473;BME280;11909;52.516;13.564;2022-07-17T03:39:42;101927.63;;;12.97;64.26
23473;BME280;11909;52.516;13.564;2022-07-17T03:42:09;101932.81;;;12.94;64.57
23473;BME280;11909;52.516;13.564;2022-07-17T03:44:35;101942.22;;;12.98;64.32
23473;BME280;11909;52.516;13.564;2022-07-17T03:47:02;101952.41;;;12.97;64.73
23473;BME280;11909;52.516;13.564;2022-07-17T03:49:28;101948.59;;;13.03;64.34
23473;BME280;11909;52.516;13.564;2022-07-17T03:51:55;101956.31;;;13.07;64.13
23473;BME280;11909;52.516;13.564;2022-07-17T03:54:21;101960.16;;;13.00;64.22
23473;BME280;11909;52.516;13.564;2022-07-17T03:56:49;101957.38;;;12.95;64.42
23473;BME280;11909;52.516;13.564;2022-07-17T03:59:16;101960.06;;;12.90;64.58
23473;BME280;11909;52.516;13.564;2022-07-17T04:01:43;101970.84;;;12.91;64.55
23473;BME280;11909;52.516;13.564;2022-07-17T04:04:09;101971.47;;;13.04;64.28
23473;BME280;11909;52.516;13.564;2022-07-17T04:06:35;101970.38;;;13.05;64.65
23473;BME280;11909;52.516;13.564;2022-07-17T04:09:03;101975.03;;;13.04;64.59
23473;BME280;11909;52.516;13.564;2022-07-17T04:11:29;101972.31;;;13.10;64.50
23473;BME280;11909;52.516;13.564;2022-07-17T04:13:57;101982.75;;;13.02;64.76
23473;BME280;11909;52.516;13.564;2022-07-17T04:16:24;101982.50;;;13.09;65.07
23473;BME280;11909;52.516;13.564;2022-07-17T04:18:50;101987.75;;;13.11;64.79
23473;BME280;11909;52.516;13.564;2022-07-17T04:21:18;101990.56;;;13.21;64.68
23473;BME280;11909;52.516;13.564;2022-07-17T04:23:45;101985.63;;;13.28;64.29
23473;BME280;11909;52.516;13.564;2022-07-17T04:26:11;101990.16;;;13.45;63.78
23473;BME280;11909;52.516;13.564;2022-07-17T04:28:38;101995.38;;;13.46;64.21
23473;BME280;11909;52.516;13.564;2022-07-17T04:31:06;101994.06;;;13.59;63.68
23473;BME280;11909;52.516;13.564;2022-07-17T04:33:33;101985.78;;;13.59;63.27
23473;BME280;11909;52.516;13.564;2022-07-17T04:36:00;101994.59;;;13.56;63.53
23473;BME280;11909;52.516;13.564;2022-07-17T04:38:26;101997.09;;;13.58;63.57
23473;BME280;11909;52.516;13.564;2022-07-17T04:40:52;101998.78;;;13.64;63.41
23473;BME280;11909;52.516;13.564;2022-07-17T04:43:19;102008.69;;;13.65;63.37
23473;BME280;11909;52.516;13.564;2022-07-17T04:45:46;102008.44;;;13.61;63.46
23473;BME280;11909;52.516;13.564;2022-07-17T04:48:13;102001.53;;;13.69;63.09
23473;BME280;11909;52.516;13.564;2022-07-17T04:50:40;102005.13;;;13.70;63.19
23473;BME280;11909;52.516;13.564;2022-07-17T04:53:07;102002.94;;;13.72;63.37
23473;BME280;11909;52.516;13.564;2022-07-17T04:55:33;102006.00;;;13.75;63.19
23473;BME280;11909;52.516;13.564;2022-07-17T04:58:00;102006.25;;;13.79;63.19
23473;BME280;11909;52.516;13.564;2022-07-17T05:00:26;102008.75;;;13.81;63.35
23473;BME280;11909;52.516;13.564;2022-07-17T05:02:53;102008.22;;;13.79;63.48
23473;BME280;11909;52.516;13.564;2022-07-17T05:05:21;102007.38;;;13.83;63.63
23473;BME280;11909;52.516;13.564;2022-07-17T05:07:47;102012.94;;;13.94;63.31
23473;BME280;11909;52.516;13.564;2022-07-17T05:10:14;102012.69;;;14.00;62.81
23473;BME280;11909;52.516;13.564;2022-07-17T05:12:41;102010.75;;;14.06;62.71
23473;BME280;11909;52.516;13.564;2022-07-17T05:15:08;102004.41;;;14.11;62.06
23473;BME280;11909;52.516;13.564;2022-07-17T05:17:34;102007.72;;;14.13;62.14
23473;BME280;11909;52.516;13.564;2022-07-17T05:20:01;102003.03;;;14.13;62.38
23473;BME280;11909;52.516;13.564;2022-07-17T05:22:29;102006.06;;;14.17;62.37
23473;BME280;11909;52.516;13.564;2022-07-17T05:24:55;102017.41;;;14.20;61.94
23473;BME280;11909;52.516;13.564;2022-07-17T05:27:22;102006.91;;;14.17;61.93
23473;BME280;11909;52.516;13.564;2022-07-17T05:29:48;102014.63;;;14.20;61.51
23473;BME280;11909;52.516;13.564;2022-07-17T05:32:14;102017.94;;;14.28;62.06
23473;BME280;11909;52.516;13.564;2022-07-17T05:34:41;102016.88;;;14.34;61.17
23473;BME280;11909;52.516;13.564;2022-07-17T05:37:07;102008.59;;;14.39;61.33
23473;BME280;11909;52.516;13.564;2022-07-17T05:39:35;102008.59;;;14.39;61.19
23473;BME280;11909;52.516;13.564;2022-07-17T05:42:02;102010.53;;;14.44;61.41
23473;BME280;11909;52.516;13.564;2022-07-17T05:44:28;102013.84;;;14.46;61.30
23473;BME280;11909;52.516;13.564;2022-07-17T05:46:55;102021.03;;;14.47;61.39
23473;BME280;11909;52.516;13.564;2022-07-17T05:49:21;102026.28;;;14.54;60.79
23473;BME280;11909;52.516;13.564;2022-07-17T05:51:48;102030.13;;;14.58;60.43
23473;BME280;11909;52.516;13.564;2022-07-17T05:54:14;102031.53;;;14.66;60.82
23473;BME280;11909;52.516;13.564;2022-07-17T05:56:42;102039.28;;;14.74;60.85
23473;BME280;11909;52.516;13.564;2022-07-17T05:59:08;102036.78;;;14.83;60.70
23473;BME280;11909;52.516;13.564;2022-07-17T06:01:35;102047.00;;;14.98;58.47
23473;BME280;11909;52.516;13.564;2022-07-17T06:04:01;102053.34;;;14.98;58.21
23473;BME280;11909;52.516;13.564;2022-07-17T06:06:28;102052.53;;;14.98;58.63
23473;BME280;11909;52.516;13.564;2022-07-17T06:08:54;102053.91;;;15.05;58.01
23473;BME280;11909;52.516;13.564;2022-07-17T06:11:21;102059.41;;;15.16;57.09
23473;BME280;11909;52.516;13.564;2022-07-17T06:13:49;102070.22;;;15.12;57.46
23473;BME280;11909;52.516;13.564;2022-07-17T06:16:15;102068.25;;;15.13;57.26
23473;BME280;11909;52.516;13.564;2022-07-17T06:18:41;102071.88;;;15.13;57.77
23473;BME280;11909;52.516;13.564;2022-07-17T06:21:08;102068.81;;;15.15;56.98
23473;BME280;11909;52.516;13.564;2022-07-17T06:23:34;102066.88;;;15.15;57.62
23473;BME280;11909;52.516;13.564;2022-07-17T06:26:01;102060.78;;;15.18;57.55
23473;BME280;11909;52.516;13.564;2022-07-17T06:28:28;102068.53;;;15.22;56.69
23473;BME280;11909;52.516;13.564;2022-07-17T06:30:55;102062.72;;;15.23;56.78
23473;BME280;11909;52.516;13.564;2022-07-17T06:33:22;102064.06;;;15.36;56.63
23473;BME280;11909;52.516;13.564;2022-07-17T06:35:48;102062.69;;;15.33;55.02
23473;BME280;11909;52.516;13.564;2022-07-17T06:38:15;102063.53;;;15.34;55.44
23473;BME280;11909;52.516;13.564;2022-07-17T06:40:42;102058.25;;;15.38;56.03
23473;BME280;11909;52.516;13.564;2022-07-17T06:43:08;102069.81;;;15.55;55.33
23473;BME280;11909;52.516;13.564;2022-07-17T06:45:35;102063.47;;;15.49;55.36
23473;BME280;11909;52.516;13.564;2022-07-17T06:48:03;102061.22;;;15.57;55.62
23473;BME280;11909;52.516;13.564;2022-07-17T06:50:30;102067.00;;;15.66;55.80
23473;BME280;11909;52.516;13.564;2022-07-17T06:52:57;102068.66;;;15.72;55.72
23473;BME280;11909;52.516;13.564;2022-07-17T06:55:24;102068.09;;;15.75;55.89
23473;BME280;11909;52.516;13.564;2022-07-17T06:57:50;102071.94;;;15.79;55.70
23473;BME280;11909;52.516;13.564;2022-07-17T07:00:17;102081.06;;;15.74;55.23
23473;BME280;11909;52.516;13.564;2022-07-17T07:02:44;102074.66;;;15.84;55.18
23473;BME280;11909;52.516;13.564;2022-07-17T07:05:12;102080.22;;;15.84;55.00
23473;BME280;11909;52.516;13.564;2022-07-17T07:07:38;102076.91;;;15.82;55.47
23473;BME280;11909;52.516;13.564;2022-07-17T07:10:06;102079.13;;;15.80;55.30
23473;BME280;11909;52.516;13.564;2022-07-17T07:12:33;102079.66;;;15.82;55.98
23473;BME280;11909;52.516;13.564;2022-07-17T07:14:59;102084.09;;;15.88;55.72
23473;BME280;11909;52.516;13.564;2022-07-17T07:17:26;102087.66;;;15.94;55.63
23473;BME280;11909;52.516;13.564;2022-07-17T07:19:53;102094.59;;;15.97;54.94
23473;BME280;11909;52.516;13.564;2022-07-17T07:22:21;102091.53;;;15.88;53.84
23473;BME280;11909;52.516;13.564;2022-07-17T07:24:47;102095.69;;;15.85;54.60
23473;BME280;11909;52.516;13.564;2022-07-17T07:27:13;102099.00;;;15.87;54.50
23473;BME280;11909;52.516;13.564;2022-07-17T07:29:40;102088.50;;;15.89;55.70
23473;BME280;11909;52.516;13.564;2022-07-17T07:32:07;102096.25;;;15.87;55.14
23473;BME280;11909;52.516;13.564;2022-07-17T07:34:33;102097.34;;;15.97;53.88
23473;BME280;11909;52.516;13.564;2022-07-17T07:37:00;102095.44;;;15.87;54.81
23473;BME280;11909;52.516;13.564;2022-07-17T07:39:27;102089.91;;;15.92;55.46
23473;BME280;11909;52.516;13.564;2022-07-17T07:41:55;102094.81;;;16.05;54.44
23473;BME280;11909;52.516;13.564;2022-07-17T07:44:21;102094.81;;;16.05;54.77
23473;BME280;11909;52.516;13.564;2022-07-17T07:46:48;102089.00;;;16.07;54.92
23473;BME280;11909;52.516;13.564;2022-07-17T07:49:14;102085.38;;;16.12;55.58
23473;BME280;11909;52.516;13.564;2022-07-17T07:51:42;102104.72;;;16.17;55.07
23473;BME280;11909;52.516;13.564;2022-07-17T07:54:09;102097.50;;;16.21;54.60
23473;BME280;11909;52.516;13.564;2022-07-17T07:56:37;102101.91;;;16.22;54.68
23473;BME280;11909;52.516;13.564;2022-07-17T07:59:03;102105.44;;;16.33;54.62
23473;BME280;11909;52.516;13.564;2022-07-17T08:01:30;102110.75;;;16.24;54.11
23473;BME280;11909;52.516;13.564;2022-07-17T08:03:57;102111.38;;;16.16;54.22
23473;BME280;11909;52.516;13.564;2022-07-17T08:06:23;102115.53;;;16.18;54.83
23473;BME280;11909;52.516;13.564;2022-07-17T08:08:50;102113.88;;;16.12;54.76
23473;BME280;11909;52.516;13.564;2022-07-17T08:11:16;102108.59;;;16.16;54.88
23473;BME280;11909;52.516;13.564;2022-07-17T08:13:44;102105.28;;;16.14;55.57
23473;BME280;11909;52.516;13.564;2022-07-17T08:16:11;102114.09;;;16.21;54.67
23473;BME280;11909;52.516;13.564;2022-07-17T08:18:38;102114.16;;;16.16;53.89
23473;BME280;11909;52.516;13.564;2022-07-17T08:21:05;102122.81;;;15.99;54.83
23473;BME280;11909;52.516;13.564;2022-07-17T08:23:32;102109.28;;;15.82;55.25
23473;BME280;11909;52.516;13.564;2022-07-17T08:25:58;102113.22;;;15.65;55.53
23473;BME280;11909;52.516;13.564;2022-07-17T08:28:25;102115.41;;;15.68;56.20
23473;BME280;11909;52.516;13.564;2022-07-17T08:30:52;102113.19;;;15.70;56.25
23473;BME280;11909;52.516;13.564;2022-07-17T08:33:19;102107.69;;;15.65;56.37
23473;BME280;11909;52.516;13.564;2022-07-17T08:35:46;102117.63;;;15.71;56.05
23473;BME280;11909;52.516;13.564;2022-07-17T08:38:12;102107.09;;;15.73;56.52
23473;BME280;11909;52.516;13.564;2022-07-17T08:40:39;102111.50;;;15.80;56.15
23473;BME280;11909;52.516;13.564;2022-07-17T08:43:08;102115.06;;;15.85;56.06
23473;BME280;11909;52.516;13.564;2022-07-17T08:45:36;102115.06;;;15.90;56.09
23473;BME280;11909;52.516;13.564;2022-07-17T08:48:09;102117.03;;;15.85;56.24
23473;BME280;11909;52.516;13.564;2022-07-17T08:50:38;102123.09;;;15.97;56.19
23473;BME280;11909;52.516;13.564;2022-07-17T08:53:05;102122.78;;;16.04;56.04
23473;BME280;11909;52.516;13.564;2022-07-17T08:55:32;102124.13;;;16.12;55.94
23473;BME280;11909;52.516;13.564;2022-07-17T08:57:59;102124.66;;;16.19;55.52
23473;BME280;11909;52.516;13.564;2022-07-17T09:00:26;102122.06;;;16.33;56.36
23473;BME280;11909;52.516;13.564;2022-07-17T09:02:56;102133.63;;;16.51;55.45
23473;BME280;11909;52.516;13.564;2022-07-17T09:05:25;102133.25;;;16.62;54.71
23473;BME280;11909;52.516;13.564;2022-07-17T09:07:52;102133.56;;;16.61;54.75
23473;BME280;11909;52.516;13.564;2022-07-17T09:10:29;102132.44;;;16.62;55.60
23473;BME280;11909;52.516;13.564;2022-07-17T09:12:56;102128.25;;;16.65;54.96
23473;BME280;11909;52.516;13.564;2022-07-17T09:15:22;102132.72;;;16.60;54.29
23473;BME280;11909;52.516;13.564;2022-07-17T09:17:50;102124.91;;;16.68;55.35
23473;BME280;11909;52.516;13.564;2022-07-17T09:20:17;102128.94;;;16.86;55.72
23473;BME280;11909;52.516;13.564;2022-07-17T09:22:55;102126.88;;;17.02;53.11
23473;BME280;11909;52.516;13.564;2022-07-17T09:25:31;102127.31;;;17.14;53.35
23473;BME280;11909;52.516;13.564;2022-07-17T09:28:00;102124.94;;;17.32;53.57
23473;BME280;11909;52.516;13.564;2022-07-17T09:30:26;102113.78;;;17.37;53.53
23473;BME280;11909;52.516;13.564;2022-07-17T09:32:55;102110.56;;;17.54;53.97
23473;BME280;11909;52.516;13.564;2022-07-17T09:35:22;102115.47;;;17.62;53.77
23473;BME280;11909;52.516;13.564;2022-07-17T09:37:52;102106.81;;;17.88;53.97
23473;BME280;11909;52.516;13.564;2022-07-17T09:40:21;102115.38;;;18.16;50.50
23473;BME280;11909;52.516;13.564;2022-07-17T09:43:05;102108.31;;;18.24;49.95
23473;BME280;11909;52.516;13.564;2022-07-17T09:45:32;102112.16;;;18.28;51.03
23473;BME280;11909;52.516;13.564;2022-07-17T09:48:00;102106.22;;;18.16;50.23
23473;BME280;11909;52.516;13.564;2022-07-17T09:50:28;102109.16;;;18.00;50.76
23473;BME280;11909;52.516;13.564;2022-07-17T09:52:57;102107.34;;;17.90;51.99
23473;BME280;11909;52.516;13.564;2022-07-17T09:55:27;102124.25;;;17.94;51.24
23473;BME280;11909;52.516;13.564;2022-07-17T09:57:56;102106.22;;;17.91;50.21
23473;BME280;11909;52.516;13.564;2022-07-17T10:00:24;102098.13;;;17.95;50.93
23473;BME280;11909;52.516;13.564;2022-07-17T10:02:51;102118.09;;;17.97;50.48
23473;BME280;11909;52.516;13.564;2022-07-17T10:05:18;102114.03;;;18.14;50.44
23473;BME280;11909;52.516;13.564;2022-07-17T10:07:46;102112.91;;;18.34;50.08
23473;BME280;11909;52.516;13.564;2022-07-17T10:10:15;102113.34;;;18.41;49.40
23473;BME280;11909;52.516;13.564;2022-07-17T10:12:45;102105.69;;;18.52;49.88
23473;BME280;11909;52.516;13.564;2022-07-17T10:15:12;102102.59;;;18.54;49.54
23473;BME280;11909;52.516;13.564;2022-07-17T10:17:39;102096.66;;;18.60;48.93
23473;BME280;11909;52.516;13.564;2022-07-17T10:20:07;102105.69;;;18.71;47.95
23473;BME280;11909;52.516;13.564;2022-07-17T10:22:41;102112.88;;;18.72;48.02
23473;BME280;11909;52.516;13.564;2022-07-17T10:25:13;102113.97;;;18.57;48.24
23473;BME280;11909;52.516;13.564;2022-07-17T10:27:48;102113.41;;;18.74;49.76
23473;BME280;11909;52.516;13.564;2022-07-17T10:30:22;102112.63;;;18.88;48.44
23473;BME280;11909;52.516;13.564;2022-07-17T10:32:54;102112.09;;;18.86;47.21
23473;BME280;11909;52.516;13.564;2022-07-17T10:35:21;102109.84;;;18.88;47.58
23473;BME280;11909;52.516;13.564;2022-07-17T10:37:48;102107.78;;;18.94;48.13
23473;BME280;11909;52.516;13.564;2022-07-17T10:40:18;102121.88;;;18.83;46.05
23473;BME280;11909;52.516;13.564;2022-07-17T10:42:55;102110.25;;;18.62;46.96
23473;BME280;11909;52.516;13.564;2022-07-17T10:45:24;102111.44;;;18.75;46.30
23473;BME280;11909;52.516;13.564;2022-07-17T10:47:53;102114.88;;;19.05;46.11
23473;BME280;11909;52.516;13.564;2022-07-17T10:50:23;102112.75;;;19.30;45.37
23473;BME280;11909;52.516;13.564;2022-07-17T10:55:44;102117.09;;;19.50;46.25
23473;BME280;11909;52.516;13.564;2022-07-17T10:58:16;102106.38;;;19.43;45.66
23473;BME280;11909;52.516;13.564;2022-07-17T11:00:44;102101.94;;;19.70;48.15
23473;BME280;11909;52.516;13.564;2022-07-17T11:03:21;102106.81;;;19.92;45.60
23473;BME280;11909;52.516;13.564;2022-07-17T11:05:47;102108.81;;;20.15;47.66
23473;BME280;11909;52.516;13.564;2022-07-17T11:08:14;102109.84;;;20.33;46.23
23473;BME280;11909;52.516;13.564;2022-07-17T11:10:40;102122.56;;;20.25;43.05
23473;BME280;11909;52.516;13.564;2022-07-17T11:13:10;102115.78;;;20.03;43.51
23473;BME280;11909;52.516;13.564;2022-07-17T11:15:41;102105.66;;;20.08;43.56
23473;BME280;11909;52.516;13.564;2022-07-17T11:18:13;102103.63;;;20.36;44.40
23473;BME280;11909;52.516;13.564;2022-07-17T11:20:50;102105.81;;;20.62;44.24
23473;BME280;11909;52.516;13.564;2022-07-17T11:23:18;102096.97;;;20.83;44.85
23473;BME280;11909;52.516;13.564;2022-07-17T11:25:52;102111.53;;;21.02;42.83
23473;BME280;11909;52.516;13.564;2022-07-17T11:28:35;102117.31;;;21.15;40.91
23473;BME280;11909;52.516;13.564;2022-07-17T11:31:04;102110.50;;;21.30;42.11
23473;BME280;11909;52.516;13.564;2022-07-17T11:33:31;102103.34;;;21.46;43.94
23473;BME280;11909;52.516;13.564;2022-07-17T11:35:57;102102.16;;;21.70;41.31
23473;BME280;11909;52.516;13.564;2022-07-17T11:38:28;102102.38;;;21.83;41.57
23473;BME280;11909;52.516;13.564;2022-07-17T11:40:56;102093.66;;;21.93;41.32
23473;BME280;11909;52.516;13.564;2022-07-17T11:43:23;102090.88;;;22.02;43.51
23473;BME280;11909;52.516;13.564;2022-07-17T11:45:51;102108.94;;;21.87;39.10
23473;BME280;11909;52.516;13.564;2022-07-17T11:48:17;102101.09;;;21.98;39.52
23473;BME280;11909;52.516;13.564;2022-07-17T11:50:54;102097.66;;;22.18;40.86
23473;BME280;11909;52.516;13.564;2022-07-17T11:53:30;102105.41;;;22.30;40.34
23473;BME280;11909;52.516;13.564;2022-07-17T11:55:57;102116.75;;;22.43;40.33
23473;BME280;11909;52.516;13.564;2022-07-17T11:58:24;102106.88;;;22.37;39.68
23473;BME280;11909;52.516;13.564;2022-07-17T12:01:01;102104.09;;;22.45;39.84
23473;BME280;11909;52.516;13.564;2022-07-17T12:03:28;102111.34;;;22.46;38.22
23473;BME280;11909;52.516;13.564;2022-07-17T12:05:54;102105.59;;;22.52;37.92
23473;BME280;11909;52.516;13.564;2022-07-17T12:08:21;102098.16;;;22.47;39.01
23473;BME280;11909;52.516;13.564;2022-07-17T12:10:47;102101.97;;;22.51;38.28
23473;BME280;11909;52.516;13.564;2022-07-17T12:13:14;102100.16;;;22.46;37.65
23473;BME280;11909;52.516;13.564;2022-07-17T12:15:44;102091.78;;;22.55;40.35
23473;BME280;11909;52.516;13.564;2022-07-17T12:18:22;102095.06;;;22.57;39.82
23473;BME280;11909;52.516;13.564;2022-07-17T12:20:50;102087.47;;;22.75;40.58
23473;BME280;11909;52.516;13.564;2022-07-17T12:23:27;102108.03;;;22.71;37.35
23473;BME280;11909;52.516;13.564;2022-07-17T12:26:03;102113.97;;;22.60;37.47
23473;BME280;11909;52.516;13.564;2022-07-17T12:28:30;102100.97;;;22.47;37.29
23473;BME280;11909;52.516;13.564;2022-07-17T12:30:56;102101.94;;;22.60;39.36
23473;BME280;11909;52.516;13.564;2022-07-17T12:33:24;102092.25;;;22.75;39.87
23473;BME280;11909;52.516;13.564;2022-07-17T12:35:52;102087.59;;;22.97;40.03
23473;BME280;11909;52.516;13.564;2022-07-17T12:38:18;102087.72;;;23.00;37.95
23473;BME280;11909;52.516;13.564;2022-07-17T12:40:45;102088.16;;;23.20;39.45
23473;BME280;11909;52.516;13.564;2022-07-17T12:43:12;102093.94;;;23.24;36.80
23473;BME280;11909;52.516;13.564;2022-07-17T12:45:38;102086.81;;;23.35;38.12